sensor_id;sensor_type;location;lat;lon;timestamp;temperature;humidity
20416;DHT22;10367;52.202;5.996;2024-02-28T00:01:49;2.90;99.90
20416;DHT22;10367;52.202;5.996;2024-02-28T00:04:18;2.90;99.90
20416;DHT22;10367;52.202;5.996;2024-02-28T00:06:48;2.80;99.90
20416;DHT22;10367;52.202;5.996;2024-02-28T00:09:17;2.90;99.90
20416;DHT22;10367;52.202;5.996;2024-02-28T00:11:46;2.90;99.90
20416;DHT22;10367;52.202;5.996;2024-02-28T00:14:15;3.00;99.90
20416;DHT22;10367;52.202;5.996;2024-02-28T00:16:45;3.00;99.90
20416;DHT22;10367;52.202;5.996;2024-02-28T00:19:17;3.00;99.90
20416;DHT22;10367;52.202;5.996;2024-02-28T00:21:47;3.00;99.90
20416;DHT22;10367;52.202;5.996;2024-02-28T00:24:16;2.90;99.90
20416;DHT22;10367;52.202;5.996;2024-02-28T00:26:45;2.90;99.90
20416;DHT22;10367;52.202;5.996;2024-02-28T00:29:14;2.90;99.90
20416;DHT22;10367;52.202;5.996;2024-02-28T00:31:42;2.90;99.90
20416;DHT22;10367;52.202;5.996;2024-02-28T00:34:11;2.90;99.90
20416;DHT22;10367;52.202;5.996;2024-02-28T00:36:41;2.90;99.90
20416;DHT22;10367;52.202;5.996;2024-02-28T00:39:22;3.00;99.90
20416;DHT22;10367;52.202;5.996;2024-02-28T00:41:51;3.00;99.90
20416;DHT22;10367;52.202;5.996;2024-02-28T00:44:20;3.00;99.90
20416;DHT22;10367;52.202;5.996;2024-02-28T00:46:49;3.10;99.90
20416;DHT22;10367;52.202;5.996;2024-02-28T00:49:18;3.10;99.90
20416;DHT22;10367;52.202;5.996;2024-02-28T00:51:48;3.10;99.90
20416;DHT22;10367;52.202;5.996;2024-02-28T00:54:17;3.10;99.90
20416;DHT22;10367;52.202;5.996;2024-02-28T00:56:45;3.20;99.90
20416;DHT22;10367;52.202;5.996;2024-02-28T00:59:15;3.20;99.90
20416;DHT22;10367;52.202;5.996;2024-02-28T01:01:44;3.20;99.90
20416;DHT22;10367;52.202;5.996;2024-02-28T01:04:12;3.10;99.90
20416;DHT22;10367;52.202;5.996;2024-02-28T01:06:41;3.20;99.90
20416;DHT22;10367;52.202;5.996;2024-02-28T01:09:12;3.20;99.90
20416;DHT22;10367;52.202;5.996;2024-02-28T01:11:40;3.10;99.90
20416;DHT22;10367;52.202;5.996;2024-02-28T01:14:09;3.10;99.90
20416;DHT22;10367;52.202;5.996;2024-02-28T01:16:39;3.20;99.90
20416;DHT22;10367;52.202;5.996;2024-02-28T01:19:07;3.20;99.90
20416;DHT22;10367;52.202;5.996;2024-02-28T01:21:36;3.30;99.90
20416;DHT22;10367;52.202;5.996;2024-02-28T01:24:05;3.30;99.90
20416;DHT22;10367;52.202;5.996;2024-02-28T01:26:35;3.30;99.90
20416;DHT22;10367;52.202;5.996;2024-02-28T01:29:04;3.30;99.90
20416;DHT22;10367;52.202;5.996;2024-02-28T01:31:33;3.30;99.90
20416;DHT22;10367;52.202;5.996;2024-02-28T01:34:02;3.30;99.90
20416;DHT22;10367;52.202;5.996;2024-02-28T01:36:31;3.30;99.90
20416;DHT22;10367;52.202;5.996;2024-02-28T01:38:59;3.30;99.90
20416;DHT22;10367;52.202;5.996;2024-02-28T01:41:28;3.40;99.90
20416;DHT22;10367;52.202;5.996;2024-02-28T01:43:58;3.40;99.90
20416;DHT22;10367;52.202;5.996;2024-02-28T01:46:27;3.40;99.90
20416;DHT22;10367;52.202;5.996;2024-02-28T01:48:57;3.40;99.90
20416;DHT22;10367;52.202;5.996;2024-02-28T01:51:27;3.40;99.90
20416;DHT22;10367;52.202;5.996;2024-02-28T01:53:56;3.40;99.90
20416;DHT22;10367;52.202;5.996;2024-02-28T01:56:26;3.40;99.90
20416;DHT22;10367;52.202;5.996;2024-02-28T01:58:58;3.40;99.90
20416;DHT22;10367;52.202;5.996;2024-02-28T02:01:28;3.40;99.90
20416;DHT22;10367;52.202;5.996;2024-02-28T02:03:57;3.30;99.90
20416;DHT22;10367;52.202;5.996;2024-02-28T02:06:26;3.30;99.90
20416;DHT22;10367;52.202;5.996;2024-02-28T02:08:55;3.20;99.90
20416;DHT22;10367;52.202;5.996;2024-02-28T02:11:25;3.20;99.90
20416;DHT22;10367;52.202;5.996;2024-02-28T02:13:54;3.20;99.90
20416;DHT22;10367;52.202;5.996;2024-02-28T02:16:24;3.20;99.90
20416;DHT22;10367;52.202;5.996;2024-02-28T02:18:54;3.10;99.90
20416;DHT22;10367;52.202;5.996;2024-02-28T02:21:26;3.10;99.90
20416;DHT22;10367;52.202;5.996;2024-02-28T02:23:58;3.10;99.90
20416;DHT22;10367;52.202;5.996;2024-02-28T02:26:26;3.10;99.90
20416;DHT22;10367;52.202;5.996;2024-02-28T02:28:55;3.10;99.90
20416;DHT22;10367;52.202;5.996;2024-02-28T02:31:24;3.10;99.90
20416;DHT22;10367;52.202;5.996;2024-02-28T02:33:53;3.00;99.90
20416;DHT22;10367;52.202;5.996;2024-02-28T02:36:22;2.90;99.90
20416;DHT22;10367;52.202;5.996;2024-02-28T02:38:51;2.80;99.90
20416;DHT22;10367;52.202;5.996;2024-02-28T02:41:21;2.70;99.90
20416;DHT22;10367;52.202;5.996;2024-02-28T02:43:50;2.70;99.90
20416;DHT22;10367;52.202;5.996;2024-02-28T02:46:22;2.70;99.90
20416;DHT22;10367;52.202;5.996;2024-02-28T02:48:51;2.80;99.90
20416;DHT22;10367;52.202;5.996;2024-02-28T02:51:20;2.80;99.90
20416;DHT22;10367;52.202;5.996;2024-02-28T02:53:49;2.80;99.90
20416;DHT22;10367;52.202;5.996;2024-02-28T02:56:18;2.70;99.90
20416;DHT22;10367;52.202;5.996;2024-02-28T02:58:48;2.70;99.90
20416;DHT22;10367;52.202;5.996;2024-02-28T03:01:17;2.70;99.90
20416;DHT22;10367;52.202;5.996;2024-02-28T03:03:47;2.60;99.90
20416;DHT22;10367;52.202;5.996;2024-02-28T03:06:16;2.60;99.90
20416;DHT22;10367;52.202;5.996;2024-02-28T03:08:45;2.60;99.90
20416;DHT22;10367;52.202;5.996;2024-02-28T03:11:14;2.70;99.90
20416;DHT22;10367;52.202;5.996;2024-02-28T03:13:42;2.70;99.90
20416;DHT22;10367;52.202;5.996;2024-02-28T03:16:12;2.80;99.90
20416;DHT22;10367;52.202;5.996;2024-02-28T03:18:41;2.80;99.90
20416;DHT22;10367;52.202;5.996;2024-02-28T03:21:10;2.80;99.90
20416;DHT22;10367;52.202;5.996;2024-02-28T03:23:39;2.80;99.90
20416;DHT22;10367;52.202;5.996;2024-02-28T03:26:08;2.80;99.90
20416;DHT22;10367;52.202;5.996;2024-02-28T03:28:37;2.80;99.90
20416;DHT22;10367;52.202;5.996;2024-02-28T03:31:06;2.80;99.90
20416;DHT22;10367;52.202;5.996;2024-02-28T03:33:36;2.70;99.90
20416;DHT22;10367;52.202;5.996;2024-02-28T03:36:05;2.70;99.90
20416;DHT22;10367;52.202;5.996;2024-02-28T03:38:34;2.70;99.90
20416;DHT22;10367;52.202;5.996;2024-02-28T03:41:04;2.70;99.90
20416;DHT22;10367;52.202;5.996;2024-02-28T03:43:33;2.60;99.90
20416;DHT22;10367;52.202;5.996;2024-02-28T03:46:02;2.50;99.90
20416;DHT22;10367;52.202;5.996;2024-02-28T03:48:31;2.40;99.90
20416;DHT22;10367;52.202;5.996;2024-02-28T03:51:01;2.30;99.90
20416;DHT22;10367;52.202;5.996;2024-02-28T03:53:30;2.30;99.90
20416;DHT22;10367;52.202;5.996;2024-02-28T03:55:59;2.20;99.90
20416;DHT22;10367;52.202;5.996;2024-02-28T03:58:28;2.10;99.90
20416;DHT22;10367;52.202;5.996;2024-02-28T04:00:57;2.00;99.90
20416;DHT22;10367;52.202;5.996;2024-02-28T04:03:26;2.00;99.90
20416;DHT22;10367;52.202;5.996;2024-02-28T04:05:54;1.90;99.90
20416;DHT22;10367;52.202;5.996;2024-02-28T04:08:25;1.80;99.90
20416;DHT22;10367;52.202;5.996;2024-02-28T04:10:54;1.80;99.90
20416;DHT22;10367;52.202;5.996;2024-02-28T04:13:23;1.80;99.90
20416;DHT22;10367;52.202;5.996;2024-02-28T04:15:51;1.80;99.90
20416;DHT22;10367;52.202;5.996;2024-02-28T04:18:20;1.90;99.90
20416;DHT22;10367;52.202;5.996;2024-02-28T04:20:49;1.80;99.90
20416;DHT22;10367;52.202;5.996;2024-02-28T04:23:18;1.80;99.90
20416;DHT22;10367;52.202;5.996;2024-02-28T04:25:48;1.90;99.90
20416;DHT22;10367;52.202;5.996;2024-02-28T04:28:17;1.90;99.90
20416;DHT22;10367;52.202;5.996;2024-02-28T04:30:46;1.90;99.90
20416;DHT22;10367;52.202;5.996;2024-02-28T04:33:15;1.90;99.90
20416;DHT22;10367;52.202;5.996;2024-02-28T04:35:44;2.00;99.90
20416;DHT22;10367;52.202;5.996;2024-02-28T04:38:13;2.10;99.90
20416;DHT22;10367;52.202;5.996;2024-02-28T04:40:42;2.20;99.90
20416;DHT22;10367;52.202;5.996;2024-02-28T04:43:12;2.20;99.90
20416;DHT22;10367;52.202;5.996;2024-02-28T04:45:41;2.20;99.90
20416;DHT22;10367;52.202;5.996;2024-02-28T04:48:10;2.20;99.90
20416;DHT22;10367;52.202;5.996;2024-02-28T04:50:39;2.30;99.90
20416;DHT22;10367;52.202;5.996;2024-02-28T04:53:08;2.30;99.90
20416;DHT22;10367;52.202;5.996;2024-02-28T04:55:37;2.40;99.90
20416;DHT22;10367;52.202;5.996;2024-02-28T04:58:06;2.40;99.90
20416;DHT22;10367;52.202;5.996;2024-02-28T05:00:36;2.40;99.90
20416;DHT22;10367;52.202;5.996;2024-02-28T05:03:05;2.40;99.90
20416;DHT22;10367;52.202;5.996;2024-02-28T05:05:34;2.30;99.90
20416;DHT22;10367;52.202;5.996;2024-02-28T05:08:03;2.30;99.90
20416;DHT22;10367;52.202;5.996;2024-02-28T05:10:32;2.20;99.90
20416;DHT22;10367;52.202;5.996;2024-02-28T05:13:01;2.20;99.90
20416;DHT22;10367;52.202;5.996;2024-02-28T05:15:31;2.20;99.90
20416;DHT22;10367;52.202;5.996;2024-02-28T05:18:02;2.20;99.90
20416;DHT22;10367;52.202;5.996;2024-02-28T05:20:31;2.10;99.90
20416;DHT22;10367;52.202;5.996;2024-02-28T05:23:00;2.10;99.90
20416;DHT22;10367;52.202;5.996;2024-02-28T05:25:28;2.00;99.90
20416;DHT22;10367;52.202;5.996;2024-02-28T05:27:57;2.10;99.90
20416;DHT22;10367;52.202;5.996;2024-02-28T05:30:26;2.10;99.90
20416;DHT22;10367;52.202;5.996;2024-02-28T05:32:55;2.20;99.90
20416;DHT22;10367;52.202;5.996;2024-02-28T05:35:26;2.20;99.90
20416;DHT22;10367;52.202;5.996;2024-02-28T05:37:55;2.30;99.90
20416;DHT22;10367;52.202;5.996;2024-02-28T05:40:24;2.30;99.90
20416;DHT22;10367;52.202;5.996;2024-02-28T05:42:53;2.40;99.90
20416;DHT22;10367;52.202;5.996;2024-02-28T05:45:22;2.40;99.90
20416;DHT22;10367;52.202;5.996;2024-02-28T05:47:51;2.50;99.90
20416;DHT22;10367;52.202;5.996;2024-02-28T05:50:20;2.50;99.90
20416;DHT22;10367;52.202;5.996;2024-02-28T05:52:50;2.50;99.90
20416;DHT22;10367;52.202;5.996;2024-02-28T05:55:19;2.60;99.90
20416;DHT22;10367;52.202;5.996;2024-02-28T05:57:51;2.60;99.90
20416;DHT22;10367;52.202;5.996;2024-02-28T06:00:23;2.60;99.90
20416;DHT22;10367;52.202;5.996;2024-02-28T06:02:52;2.70;99.90
20416;DHT22;10367;52.202;5.996;2024-02-28T06:05:27;2.60;99.90
20416;DHT22;10367;52.202;5.996;2024-02-28T06:07:57;2.70;99.90
20416;DHT22;10367;52.202;5.996;2024-02-28T06:10:26;2.80;99.90
20416;DHT22;10367;52.202;5.996;2024-02-28T06:13:12;2.70;99.90
20416;DHT22;10367;52.202;5.996;2024-02-28T06:15:41;2.80;99.90
20416;DHT22;10367;52.202;5.996;2024-02-28T06:18:11;2.80;99.90
20416;DHT22;10367;52.202;5.996;2024-02-28T06:20:39;2.80;99.90
20416;DHT22;10367;52.202;5.996;2024-02-28T06:23:10;2.80;99.90
20416;DHT22;10367;52.202;5.996;2024-02-28T06:25:49;2.80;99.90
20416;DHT22;10367;52.202;5.996;2024-02-28T06:28:18;2.80;99.90
20416;DHT22;10367;52.202;5.996;2024-02-28T06:30:48;2.80;99.90
20416;DHT22;10367;52.202;5.996;2024-02-28T06:33:17;2.80;99.90
20416;DHT22;10367;52.202;5.996;2024-02-28T06:35:46;2.80;99.90
20416;DHT22;10367;52.202;5.996;2024-02-28T06:38:16;2.80;99.90
20416;DHT22;10367;52.202;5.996;2024-02-28T06:40:45;2.80;99.90
20416;DHT22;10367;52.202;5.996;2024-02-28T06:43:14;2.80;99.90
20416;DHT22;10367;52.202;5.996;2024-02-28T06:45:43;2.90;99.90
20416;DHT22;10367;52.202;5.996;2024-02-28T06:48:12;2.90;99.90
20416;DHT22;10367;52.202;5.996;2024-02-28T06:50:41;2.90;99.90
20416;DHT22;10367;52.202;5.996;2024-02-28T06:53:10;2.90;99.90
20416;DHT22;10367;52.202;5.996;2024-02-28T06:55:40;2.90;99.90
20416;DHT22;10367;52.202;5.996;2024-02-28T06:58:09;3.00;99.90
20416;DHT22;10367;52.202;5.996;2024-02-28T07:00:38;3.00;99.90
20416;DHT22;10367;52.202;5.996;2024-02-28T07:03:07;3.00;99.90
20416;DHT22;10367;52.202;5.996;2024-02-28T07:05:36;3.00;99.90
20416;DHT22;10367;52.202;5.996;2024-02-28T07:08:06;3.00;99.90
20416;DHT22;10367;52.202;5.996;2024-02-28T07:10:37;3.00;99.90
20416;DHT22;10367;52.202;5.996;2024-02-28T07:13:12;3.00;99.90
20416;DHT22;10367;52.202;5.996;2024-02-28T07:15:41;3.00;99.90
20416;DHT22;10367;52.202;5.996;2024-02-28T07:18:11;3.10;99.90
20416;DHT22;10367;52.202;5.996;2024-02-28T07:20:40;3.10;99.90
20416;DHT22;10367;52.202;5.996;2024-02-28T07:23:09;3.20;99.90
20416;DHT22;10367;52.202;5.996;2024-02-28T07:25:38;3.20;99.90
20416;DHT22;10367;52.202;5.996;2024-02-28T07:28:07;3.30;99.90
20416;DHT22;10367;52.202;5.996;2024-02-28T07:30:37;3.30;99.90
20416;DHT22;10367;52.202;5.996;2024-02-28T07:33:07;3.40;99.90
20416;DHT22;10367;52.202;5.996;2024-02-28T07:35:44;3.50;99.90
20416;DHT22;10367;52.202;5.996;2024-02-28T07:38:13;3.60;99.90
20416;DHT22;10367;52.202;5.996;2024-02-28T07:40:44;3.70;99.90
20416;DHT22;10367;52.202;5.996;2024-02-28T07:43:13;3.80;99.90
20416;DHT22;10367;52.202;5.996;2024-02-28T07:45:43;3.80;99.90
20416;DHT22;10367;52.202;5.996;2024-02-28T07:48:12;3.90;99.90
20416;DHT22;10367;52.202;5.996;2024-02-28T07:50:42;3.90;99.90
20416;DHT22;10367;52.202;5.996;2024-02-28T07:53:10;4.00;99.90
20416;DHT22;10367;52.202;5.996;2024-02-28T07:55:39;4.00;99.90
20416;DHT22;10367;52.202;5.996;2024-02-28T07:58:08;4.10;99.90
20416;DHT22;10367;52.202;5.996;2024-02-28T08:00:38;4.10;99.90
20416;DHT22;10367;52.202;5.996;2024-02-28T08:03:10;4.10;99.90
20416;DHT22;10367;52.202;5.996;2024-02-28T08:05:38;4.20;99.90
20416;DHT22;10367;52.202;5.996;2024-02-28T08:08:08;4.30;99.90
20416;DHT22;10367;52.202;5.996;2024-02-28T08:10:37;4.30;99.90
20416;DHT22;10367;52.202;5.996;2024-02-28T08:13:06;4.30;99.90
20416;DHT22;10367;52.202;5.996;2024-02-28T08:15:35;4.40;99.90
20416;DHT22;10367;52.202;5.996;2024-02-28T08:18:04;4.40;99.90
20416;DHT22;10367;52.202;5.996;2024-02-28T08:20:35;4.40;99.90
20416;DHT22;10367;52.202;5.996;2024-02-28T08:23:04;4.50;99.90
20416;DHT22;10367;52.202;5.996;2024-02-28T08:25:33;4.50;99.90
20416;DHT22;10367;52.202;5.996;2024-02-28T08:28:03;4.50;99.90
20416;DHT22;10367;52.202;5.996;2024-02-28T08:30:32;4.60;99.90
20416;DHT22;10367;52.202;5.996;2024-02-28T08:33:02;4.60;99.90
20416;DHT22;10367;52.202;5.996;2024-02-28T08:35:31;4.70;99.90
20416;DHT22;10367;52.202;5.996;2024-02-28T08:38:01;4.70;99.90
20416;DHT22;10367;52.202;5.996;2024-02-28T08:40:31;4.80;99.90
20416;DHT22;10367;52.202;5.996;2024-02-28T08:42:59;4.90;99.90
20416;DHT22;10367;52.202;5.996;2024-02-28T08:45:28;4.90;99.90
20416;DHT22;10367;52.202;5.996;2024-02-28T08:47:58;4.90;99.90
20416;DHT22;10367;52.202;5.996;2024-02-28T08:50:28;5.00;99.90
20416;DHT22;10367;52.202;5.996;2024-02-28T08:52:57;5.10;99.90
20416;DHT22;10367;52.202;5.996;2024-02-28T08:55:27;5.00;99.90
20416;DHT22;10367;52.202;5.996;2024-02-28T08:57:57;5.10;99.90
20416;DHT22;10367;52.202;5.996;2024-02-28T09:00:26;5.20;99.90
20416;DHT22;10367;52.202;5.996;2024-02-28T09:02:55;5.20;99.90
20416;DHT22;10367;52.202;5.996;2024-02-28T09:05:24;5.30;99.90
20416;DHT22;10367;52.202;5.996;2024-02-28T09:07:54;5.40;99.90
20416;DHT22;10367;52.202;5.996;2024-02-28T09:10:23;5.40;99.90
20416;DHT22;10367;52.202;5.996;2024-02-28T09:12:54;5.60;99.90
20416;DHT22;10367;52.202;5.996;2024-02-28T09:15:23;5.70;99.90
20416;DHT22;10367;52.202;5.996;2024-02-28T09:17:52;5.70;99.90
20416;DHT22;10367;52.202;5.996;2024-02-28T09:20:21;5.80;99.90
20416;DHT22;10367;52.202;5.996;2024-02-28T09:22:50;5.90;99.90
20416;DHT22;10367;52.202;5.996;2024-02-28T09:25:19;5.90;99.90
20416;DHT22;10367;52.202;5.996;2024-02-28T09:27:51;5.90;99.90
20416;DHT22;10367;52.202;5.996;2024-02-28T09:30:23;5.90;99.90
20416;DHT22;10367;52.202;5.996;2024-02-28T09:33:09;6.00;99.90
20416;DHT22;10367;52.202;5.996;2024-02-28T09:35:37;6.00;99.90
20416;DHT22;10367;52.202;5.996;2024-02-28T09:38:07;6.00;99.90
20416;DHT22;10367;52.202;5.996;2024-02-28T09:40:35;6.00;99.90
20416;DHT22;10367;52.202;5.996;2024-02-28T09:43:04;6.00;99.90
20416;DHT22;10367;52.202;5.996;2024-02-28T09:45:35;6.10;99.90
20416;DHT22;10367;52.202;5.996;2024-02-28T09:48:04;6.10;99.90
20416;DHT22;10367;52.202;5.996;2024-02-28T09:50:34;6.10;99.90
20416;DHT22;10367;52.202;5.996;2024-02-28T09:53:03;6.10;99.90
20416;DHT22;10367;52.202;5.996;2024-02-28T09:55:37;6.00;99.90
20416;DHT22;10367;52.202;5.996;2024-02-28T09:58:08;6.00;99.90
20416;DHT22;10367;52.202;5.996;2024-02-28T10:00:39;5.90;99.90
20416;DHT22;10367;52.202;5.996;2024-02-28T10:03:12;5.90;99.90
20416;DHT22;10367;52.202;5.996;2024-02-28T10:05:42;5.90;99.90
20416;DHT22;10367;52.202;5.996;2024-02-28T10:08:12;6.00;99.90
20416;DHT22;10367;52.202;5.996;2024-02-28T10:10:47;6.00;99.90
20416;DHT22;10367;52.202;5.996;2024-02-28T10:13:17;6.10;99.90
20416;DHT22;10367;52.202;5.996;2024-02-28T10:15:48;6.10;99.90
20416;DHT22;10367;52.202;5.996;2024-02-28T10:18:17;6.10;99.90
20416;DHT22;10367;52.202;5.996;2024-02-28T10:20:47;6.20;99.90
20416;DHT22;10367;52.202;5.996;2024-02-28T10:23:16;6.30;99.90
20416;DHT22;10367;52.202;5.996;2024-02-28T10:25:46;6.30;99.90
20416;DHT22;10367;52.202;5.996;2024-02-28T10:28:24;6.30;99.90
20416;DHT22;10367;52.202;5.996;2024-02-28T10:30:55;6.30;99.90
20416;DHT22;10367;52.202;5.996;2024-02-28T10:33:27;6.40;99.90
20416;DHT22;10367;52.202;5.996;2024-02-28T10:35:57;6.40;99.90
20416;DHT22;10367;52.202;5.996;2024-02-28T10:38:27;6.50;99.90
20416;DHT22;10367;52.202;5.996;2024-02-28T10:40:56;6.60;99.90
20416;DHT22;10367;52.202;5.996;2024-02-28T10:43:28;6.70;99.90
20416;DHT22;10367;52.202;5.996;2024-02-28T10:45:58;6.70;99.90
20416;DHT22;10367;52.202;5.996;2024-02-28T10:48:30;6.80;99.90
20416;DHT22;10367;52.202;5.996;2024-02-28T10:51:00;6.80;99.90
20416;DHT22;10367;52.202;5.996;2024-02-28T10:53:36;6.90;99.90
20416;DHT22;10367;52.202;5.996;2024-02-28T10:56:06;6.90;99.90
20416;DHT22;10367;52.202;5.996;2024-02-28T10:58:43;7.00;99.90
20416;DHT22;10367;52.202;5.996;2024-02-28T11:01:18;7.10;99.90
20416;DHT22;10367;52.202;5.996;2024-02-28T11:03:48;7.20;99.90
20416;DHT22;10367;52.202;5.996;2024-02-28T11:06:18;7.30;99.90
20416;DHT22;10367;52.202;5.996;2024-02-28T11:08:51;7.50;99.90
20416;DHT22;10367;52.202;5.996;2024-02-28T11:11:22;7.60;99.90
20416;DHT22;10367;52.202;5.996;2024-02-28T11:13:52;7.70;99.90
20416;DHT22;10367;52.202;5.996;2024-02-28T11:16:31;7.80;99.90
20416;DHT22;10367;52.202;5.996;2024-02-28T11:19:01;8.00;99.90
20416;DHT22;10367;52.202;5.996;2024-02-28T11:21:35;8.20;99.90
20416;DHT22;10367;52.202;5.996;2024-02-28T11:24:05;8.30;99.90
20416;DHT22;10367;52.202;5.996;2024-02-28T11:26:34;8.40;99.90
20416;DHT22;10367;52.202;5.996;2024-02-28T11:29:03;8.50;99.90
20416;DHT22;10367;52.202;5.996;2024-02-28T11:31:33;8.40;99.90
20416;DHT22;10367;52.202;5.996;2024-02-28T11:34:03;8.50;99.90
20416;DHT22;10367;52.202;5.996;2024-02-28T11:36:32;8.70;99.90
20416;DHT22;10367;52.202;5.996;2024-02-28T11:39:01;8.90;99.90
20416;DHT22;10367;52.202;5.996;2024-02-28T11:41:30;9.10;99.90
20416;DHT22;10367;52.202;5.996;2024-02-28T11:43:59;9.10;99.90
20416;DHT22;10367;52.202;5.996;2024-02-28T11:46:29;9.20;99.90
20416;DHT22;10367;52.202;5.996;2024-02-28T11:49:00;9.30;99.90
20416;DHT22;10367;52.202;5.996;2024-02-28T11:51:29;9.40;99.90
20416;DHT22;10367;52.202;5.996;2024-02-28T11:54:01;9.50;99.90
20416;DHT22;10367;52.202;5.996;2024-02-28T11:56:30;9.70;99.90
20416;DHT22;10367;52.202;5.996;2024-02-28T11:58:59;9.80;99.90
20416;DHT22;10367;52.202;5.996;2024-02-28T12:01:35;9.90;99.90
20416;DHT22;10367;52.202;5.996;2024-02-28T12:04:06;10.00;99.90
20416;DHT22;10367;52.202;5.996;2024-02-28T12:06:35;10.10;99.90
20416;DHT22;10367;52.202;5.996;2024-02-28T12:09:07;10.10;99.90
20416;DHT22;10367;52.202;5.996;2024-02-28T12:11:37;10.00;99.90
20416;DHT22;10367;52.202;5.996;2024-02-28T12:14:07;9.90;99.90
20416;DHT22;10367;52.202;5.996;2024-02-28T12:16:37;9.90;99.90
20416;DHT22;10367;52.202;5.996;2024-02-28T12:19:10;9.90;99.90
20416;DHT22;10367;52.202;5.996;2024-02-28T12:21:40;9.80;99.90
20416;DHT22;10367;52.202;5.996;2024-02-28T12:24:10;9.80;99.90
20416;DHT22;10367;52.202;5.996;2024-02-28T12:26:39;9.90;99.90
20416;DHT22;10367;52.202;5.996;2024-02-28T12:29:08;9.80;99.90
20416;DHT22;10367;52.202;5.996;2024-02-28T12:31:38;9.90;99.90
20416;DHT22;10367;52.202;5.996;2024-02-28T12:34:08;9.90;99.90
20416;DHT22;10367;52.202;5.996;2024-02-28T12:36:37;10.00;99.90
20416;DHT22;10367;52.202;5.996;2024-02-28T12:39:07;10.10;99.90
20416;DHT22;10367;52.202;5.996;2024-02-28T12:41:38;10.30;99.90
20416;DHT22;10367;52.202;5.996;2024-02-28T12:44:07;10.50;99.90
20416;DHT22;10367;52.202;5.996;2024-02-28T12:46:37;10.60;99.90
20416;DHT22;10367;52.202;5.996;2024-02-28T12:49:08;10.70;99.90
20416;DHT22;10367;52.202;5.996;2024-02-28T12:51:39;10.80;99.90
20416;DHT22;10367;52.202;5.996;2024-02-28T12:54:08;10.80;99.90
20416;DHT22;10367;52.202;5.996;2024-02-28T12:56:38;10.80;99.90
20416;DHT22;10367;52.202;5.996;2024-02-28T12:59:10;11.00;99.90
20416;DHT22;10367;52.202;5.996;2024-02-28T13:01:39;10.70;99.90
20416;DHT22;10367;52.202;5.996;2024-02-28T13:04:09;10.70;99.90
20416;DHT22;10367;52.202;5.996;2024-02-28T13:06:38;10.60;99.90
20416;DHT22;10367;52.202;5.996;2024-02-28T13:09:08;10.60;99.90
20416;DHT22;10367;52.202;5.996;2024-02-28T13:11:40;10.50;99.90
20416;DHT22;10367;52.202;5.996;2024-02-28T13:14:11;10.60;99.90
20416;DHT22;10367;52.202;5.996;2024-02-28T13:16:40;10.60;99.90
20416;DHT22;10367;52.202;5.996;2024-02-28T13:19:10;10.50;99.90
20416;DHT22;10367;52.202;5.996;2024-02-28T13:21:42;10.30;99.90
20416;DHT22;10367;52.202;5.996;2024-02-28T13:24:11;10.30;99.90
20416;DHT22;10367;52.202;5.996;2024-02-28T13:26:42;10.20;99.90
20416;DHT22;10367;52.202;5.996;2024-02-28T13:29:11;10.20;99.90
20416;DHT22;10367;52.202;5.996;2024-02-28T13:31:40;10.10;99.90
20416;DHT22;10367;52.202;5.996;2024-02-28T13:34:11;10.10;99.90
20416;DHT22;10367;52.202;5.996;2024-02-28T13:36:39;10.00;99.90
20416;DHT22;10367;52.202;5.996;2024-02-28T13:39:10;10.00;99.90
20416;DHT22;10367;52.202;5.996;2024-02-28T13:41:39;9.80;99.90
20416;DHT22;10367;52.202;5.996;2024-02-28T13:44:08;9.70;99.90
20416;DHT22;10367;52.202;5.996;2024-02-28T13:46:37;9.60;99.90
20416;DHT22;10367;52.202;5.996;2024-02-28T13:49:10;9.60;99.90
20416;DHT22;10367;52.202;5.996;2024-02-28T13:51:39;9.50;99.90
20416;DHT22;10367;52.202;5.996;2024-02-28T13:54:09;9.40;99.90
20416;DHT22;10367;52.202;5.996;2024-02-28T13:56:38;9.40;99.90
20416;DHT22;10367;52.202;5.996;2024-02-28T13:59:07;9.30;99.90
20416;DHT22;10367;52.202;5.996;2024-02-28T14:01:37;9.30;99.90
20416;DHT22;10367;52.202;5.996;2024-02-28T14:04:06;9.20;99.90
20416;DHT22;10367;52.202;5.996;2024-02-28T14:06:37;9.20;99.90
20416;DHT22;10367;52.202;5.996;2024-02-28T14:09:06;9.20;99.90
20416;DHT22;10367;52.202;5.996;2024-02-28T14:11:36;9.20;99.90
20416;DHT22;10367;52.202;5.996;2024-02-28T14:14:05;9.20;99.90
20416;DHT22;10367;52.202;5.996;2024-02-28T14:16:34;9.20;99.90
20416;DHT22;10367;52.202;5.996;2024-02-28T14:19:03;9.20;99.90
20416;DHT22;10367;52.202;5.996;2024-02-28T14:21:33;9.10;99.90
20416;DHT22;10367;52.202;5.996;2024-02-28T14:24:05;9.20;99.90
20416;DHT22;10367;52.202;5.996;2024-02-28T14:26:34;9.20;99.90
20416;DHT22;10367;52.202;5.996;2024-02-28T14:29:03;9.20;99.90
20416;DHT22;10367;52.202;5.996;2024-02-28T14:31:32;9.30;99.90
20416;DHT22;10367;52.202;5.996;2024-02-28T14:34:02;9.30;99.90
20416;DHT22;10367;52.202;5.996;2024-02-28T14:36:32;9.30;99.90
20416;DHT22;10367;52.202;5.996;2024-02-28T14:39:01;9.30;99.90
20416;DHT22;10367;52.202;5.996;2024-02-28T14:41:31;9.20;99.90
20416;DHT22;10367;52.202;5.996;2024-02-28T14:44:02;9.20;99.90
20416;DHT22;10367;52.202;5.996;2024-02-28T14:46:31;9.30;99.90
20416;DHT22;10367;52.202;5.996;2024-02-28T14:49:00;9.30;99.90
20416;DHT22;10367;52.202;5.996;2024-02-28T14:51:30;9.40;99.90
20416;DHT22;10367;52.202;5.996;2024-02-28T14:54:00;9.50;99.90
20416;DHT22;10367;52.202;5.996;2024-02-28T14:56:31;9.60;99.90
20416;DHT22;10367;52.202;5.996;2024-02-28T14:59:00;9.70;99.90
20416;DHT22;10367;52.202;5.996;2024-02-28T15:01:30;9.80;99.90
20416;DHT22;10367;52.202;5.996;2024-02-28T15:03:59;10.00;99.90
20416;DHT22;10367;52.202;5.996;2024-02-28T15:06:29;10.20;99.90
20416;DHT22;10367;52.202;5.996;2024-02-28T15:08:58;10.20;99.90
20416;DHT22;10367;52.202;5.996;2024-02-28T15:11:27;10.10;99.90
20416;DHT22;10367;52.202;5.996;2024-02-28T15:13:57;10.10;99.90
20416;DHT22;10367;52.202;5.996;2024-02-28T15:16:27;10.10;99.90
20416;DHT22;10367;52.202;5.996;2024-02-28T15:18:55;10.00;99.90
20416;DHT22;10367;52.202;5.996;2024-02-28T15:21:24;9.90;99.90
20416;DHT22;10367;52.202;5.996;2024-02-28T15:23:54;9.90;99.90
20416;DHT22;10367;52.202;5.996;2024-02-28T15:26:23;9.70;99.90
20416;DHT22;10367;52.202;5.996;2024-02-28T15:29:07;9.60;99.90
20416;DHT22;10367;52.202;5.996;2024-02-28T15:31:36;9.50;99.90
20416;DHT22;10367;52.202;5.996;2024-02-28T15:34:05;9.40;99.90
20416;DHT22;10367;52.202;5.996;2024-02-28T15:36:34;9.40;99.90
20416;DHT22;10367;52.202;5.996;2024-02-28T15:39:03;9.40;99.90
20416;DHT22;10367;52.202;5.996;2024-02-28T15:41:34;9.30;99.90
20416;DHT22;10367;52.202;5.996;2024-02-28T15:44:08;9.30;99.90
20416;DHT22;10367;52.202;5.996;2024-02-28T15:46:37;9.30;99.90
20416;DHT22;10367;52.202;5.996;2024-02-28T15:49:06;9.30;99.90
20416;DHT22;10367;52.202;5.996;2024-02-28T15:51:36;9.20;99.90
20416;DHT22;10367;52.202;5.996;2024-02-28T15:54:05;9.10;99.90
20416;DHT22;10367;52.202;5.996;2024-02-28T15:56:34;9.10;99.90
20416;DHT22;10367;52.202;5.996;2024-02-28T15:59:03;9.10;99.90
20416;DHT22;10367;52.202;5.996;2024-02-28T16:01:34;9.00;99.90